sensor_id;sensor_type;location;lat;lon;timestamp;P1;durP1;ratioP1;P2;durP2;ratioP2
6549;SDS011;15142;48.888;9.134;2023-03-01T00:02:10;22.77;;;12.93;;
6549;SDS011;15142;48.888;9.134;2023-03-01T00:04:37;30.47;;;11.97;;
6549;SDS011;15142;48.888;9.134;2023-03-01T00:07:04;25.70;;;13.40;;
6549;SDS011;15142;48.888;9.134;2023-03-01T00:09:31;24.23;;;12.07;;
6549;SDS011;15142;48.888;9.134;2023-03-01T00:11:58;23.57;;;12.43;;
6549;SDS011;15142;48.888;9.134;2023-03-01T00:14:25;23.60;;;12.73;;
6549;SDS011;15142;48.888;9.134;2023-03-01T00:16:52;20.90;;;11.30;;
6549;SDS011;15142;48.888;9.134;2023-03-01T00:19:20;23.53;;;13.50;;
6549;SDS011;15142;48.888;9.134;2023-03-01T00:21:48;22.50;;;13.37;;
6549;SDS011;15142;48.888;9.134;2023-03-01T00:24:14;23.17;;;14.80;;
6549;SDS011;15142;48.888;9.134;2023-03-01T00:26:41;26.50;;;14.57;;
6549;SDS011;15142;48.888;9.134;2023-03-01T00:29:08;26.53;;;14.40;;
6549;SDS011;15142;48.888;9.134;2023-03-01T00:31:35;28.40;;;13.23;;
6549;SDS011;15142;48.888;9.134;2023-03-01T00:34:02;19.90;;;11.73;;
6549;SDS011;15142;48.888;9.134;2023-03-01T00:36:32;22.83;;;12.90;;
6549;SDS011;15142;48.888;9.134;2023-03-01T00:39:00;28.27;;;13.70;;
6549;SDS011;15142;48.888;9.134;2023-03-01T00:41:27;24.20;;;12.67;;
6549;SDS011;15142;48.888;9.134;2023-03-01T00:43:54;21.47;;;12.97;;
6549;SDS011;15142;48.888;9.134;2023-03-01T00:46:22;21.30;;;12.23;;
6549;SDS011;15142;48.888;9.134;2023-03-01T00:48:51;29.30;;;15.23;;
6549;SDS011;15142;48.888;9.134;2023-03-01T00:51:18;23.13;;;14.40;;
6549;SDS011;15142;48.888;9.134;2023-03-01T00:53:49;21.30;;;12.87;;
6549;SDS011;15142;48.888;9.134;2023-03-01T00:56:17;21.73;;;12.37;;
6549;SDS011;15142;48.888;9.134;2023-03-01T00:58:44;24.37;;;12.00;;
6549;SDS011;15142;48.888;9.134;2023-03-01T01:01:13;19.83;;;12.27;;
6549;SDS011;15142;48.888;9.134;2023-03-01T01:03:43;24.53;;;12.40;;
6549;SDS011;15142;48.888;9.134;2023-03-01T01:06:18;22.50;;;13.30;;
6549;SDS011;15142;48.888;9.134;2023-03-01T01:08:47;24.13;;;12.83;;
6549;SDS011;15142;48.888;9.134;2023-03-01T01:11:15;25.87;;;13.27;;
6549;SDS011;15142;48.888;9.134;2023-03-01T01:13:43;28.20;;;14.40;;
6549;SDS011;15142;48.888;9.134;2023-03-01T01:16:11;30.70;;;12.97;;
6549;SDS011;15142;48.888;9.134;2023-03-01T01:18:38;35.30;;;17.10;;
6549;SDS011;15142;48.888;9.134;2023-03-01T01:21:07;23.03;;;12.50;;
6549;SDS011;15142;48.888;9.134;2023-03-01T01:23:36;22.37;;;13.47;;
6549;SDS011;15142;48.888;9.134;2023-03-01T01:26:05;31.30;;;14.00;;
6549;SDS011;15142;48.888;9.134;2023-03-01T01:28:32;26.83;;;12.13;;
6549;SDS011;15142;48.888;9.134;2023-03-01T01:30:59;31.20;;;13.87;;
6549;SDS011;15142;48.888;9.134;2023-03-01T01:33:26;22.00;;;13.00;;
6549;SDS011;15142;48.888;9.134;2023-03-01T01:35:53;22.70;;;13.50;;
6549;SDS011;15142;48.888;9.134;2023-03-01T01:38:19;21.70;;;11.50;;
6549;SDS011;15142;48.888;9.134;2023-03-01T01:40:47;28.30;;;13.50;;
6549;SDS011;15142;48.888;9.134;2023-03-01T01:43:18;29.80;;;12.47;;
6549;SDS011;15142;48.888;9.134;2023-03-01T01:45:48;33.87;;;13.00;;
6549;SDS011;15142;48.888;9.134;2023-03-01T01:48:16;24.20;;;14.00;;
6549;SDS011;15142;48.888;9.134;2023-03-01T01:50:46;24.20;;;13.20;;
6549;SDS011;15142;48.888;9.134;2023-03-01T01:53:19;24.03;;;14.00;;
6549;SDS011;15142;48.888;9.134;2023-03-01T01:55:47;30.57;;;15.03;;
6549;SDS011;15142;48.888;9.134;2023-03-01T01:58:19;27.20;;;13.50;;
6549;SDS011;15142;48.888;9.134;2023-03-01T02:00:48;25.17;;;14.43;;
6549;SDS011;15142;48.888;9.134;2023-03-01T02:03:15;26.43;;;12.97;;
6549;SDS011;15142;48.888;9.134;2023-03-01T02:05:47;22.07;;;13.13;;
6549;SDS011;15142;48.888;9.134;2023-03-01T02:08:18;26.00;;;12.90;;
6549;SDS011;15142;48.888;9.134;2023-03-01T02:10:46;28.50;;;12.97;;
6549;SDS011;15142;48.888;9.134;2023-03-01T02:13:14;32.43;;;13.67;;
6549;SDS011;15142;48.888;9.134;2023-03-01T02:15:42;23.73;;;13.70;;
6549;SDS011;15142;48.888;9.134;2023-03-01T02:18:10;23.00;;;13.87;;
6549;SDS011;15142;48.888;9.134;2023-03-01T02:20:40;29.17;;;14.67;;
6549;SDS011;15142;48.888;9.134;2023-03-01T02:23:15;28.00;;;14.93;;
6549;SDS011;15142;48.888;9.134;2023-03-01T02:25:45;25.33;;;14.03;;
6549;SDS011;15142;48.888;9.134;2023-03-01T02:28:27;34.07;;;13.80;;
6549;SDS011;15142;48.888;9.134;2023-03-01T02:30:56;21.80;;;13.10;;
6549;SDS011;15142;48.888;9.134;2023-03-01T02:33:40;29.10;;;12.30;;
6549;SDS011;15142;48.888;9.134;2023-03-01T02:36:08;31.67;;;13.77;;
6549;SDS011;15142;48.888;9.134;2023-03-01T02:38:38;28.17;;;16.03;;
6549;SDS011;15142;48.888;9.134;2023-03-01T02:41:05;24.80;;;13.30;;
6549;SDS011;15142;48.888;9.134;2023-03-01T02:43:35;27.93;;;13.97;;
6549;SDS011;15142;48.888;9.134;2023-03-01T02:46:07;24.43;;;13.03;;
6549;SDS011;15142;48.888;9.134;2023-03-01T02:48:41;26.70;;;14.43;;
6549;SDS011;15142;48.888;9.134;2023-03-01T02:51:11;24.60;;;14.87;;
6549;SDS011;15142;48.888;9.134;2023-03-01T02:53:46;28.17;;;13.87;;
6549;SDS011;15142;48.888;9.134;2023-03-01T02:56:23;24.57;;;14.07;;
6549;SDS011;15142;48.888;9.134;2023-03-01T02:58:52;24.53;;;13.80;;
6549;SDS011;15142;48.888;9.134;2023-03-01T03:01:19;28.20;;;15.17;;
6549;SDS011;15142;48.888;9.134;2023-03-01T03:03:46;28.60;;;13.73;;
6549;SDS011;15142;48.888;9.134;2023-03-01T03:06:13;27.03;;;14.30;;
6549;SDS011;15142;48.888;9.134;2023-03-01T03:08:40;26.90;;;14.97;;
6549;SDS011;15142;48.888;9.134;2023-03-01T03:11:06;26.03;;;14.50;;
6549;SDS011;15142;48.888;9.134;2023-03-01T03:13:33;28.50;;;13.00;;
6549;SDS011;15142;48.888;9.134;2023-03-01T03:18:39;28.00;;;14.50;;
6549;SDS011;15142;48.888;9.134;2023-03-01T03:21:07;25.70;;;14.43;;
6549;SDS011;15142;48.888;9.134;2023-03-01T03:23:35;25.60;;;14.03;;
6549;SDS011;15142;48.888;9.134;2023-03-01T03:26:02;29.93;;;14.13;;
6549;SDS011;15142;48.888;9.134;2023-03-01T03:28:29;29.97;;;13.90;;
6549;SDS011;15142;48.888;9.134;2023-03-01T03:30:56;26.13;;;14.43;;
6549;SDS011;15142;48.888;9.134;2023-03-01T03:33:23;26.47;;;13.97;;
6549;SDS011;15142;48.888;9.134;2023-03-01T03:35:51;23.57;;;13.10;;
6549;SDS011;15142;48.888;9.134;2023-03-01T03:38:18;22.13;;;13.00;;
6549;SDS011;15142;48.888;9.134;2023-03-01T03:40:47;28.23;;;14.20;;
6549;SDS011;15142;48.888;9.134;2023-03-01T03:43:16;24.33;;;13.63;;
6549;SDS011;15142;48.888;9.134;2023-03-01T03:45:44;23.80;;;14.77;;
6549;SDS011;15142;48.888;9.134;2023-03-01T03:48:12;26.50;;;13.73;;
6549;SDS011;15142;48.888;9.134;2023-03-01T03:50:39;23.07;;;13.80;;
6549;SDS011;15142;48.888;9.134;2023-03-01T03:53:08;36.03;;;16.30;;
6549;SDS011;15142;48.888;9.134;2023-03-01T03:55:36;22.73;;;12.70;;
6549;SDS011;15142;48.888;9.134;2023-03-01T03:58:05;24.13;;;15.83;;
6549;SDS011;15142;48.888;9.134;2023-03-01T04:00:33;25.17;;;14.50;;
6549;SDS011;15142;48.888;9.134;2023-03-01T04:03:00;20.60;;;13.70;;
6549;SDS011;15142;48.888;9.134;2023-03-01T04:05:27;32.33;;;16.83;;
6549;SDS011;15142;48.888;9.134;2023-03-01T04:07:53;27.33;;;16.47;;
6549;SDS011;15142;48.888;9.134;2023-03-01T04:10:28;25.53;;;14.20;;
6549;SDS011;15142;48.888;9.134;2023-03-01T04:12:56;28.07;;;14.20;;
6549;SDS011;15142;48.888;9.134;2023-03-01T04:15:23;27.30;;;14.63;;
6549;SDS011;15142;48.888;9.134;2023-03-01T04:17:51;31.90;;;14.70;;
6549;SDS011;15142;48.888;9.134;2023-03-01T04:20:20;24.23;;;15.00;;
6549;SDS011;15142;48.888;9.134;2023-03-01T04:22:51;36.13;;;14.57;;
6549;SDS011;15142;48.888;9.134;2023-03-01T04:25:18;47.13;;;16.63;;
6549;SDS011;15142;48.888;9.134;2023-03-01T04:27:46;30.67;;;15.87;;
6549;SDS011;15142;48.888;9.134;2023-03-01T04:30:13;24.87;;;14.20;;
6549;SDS011;15142;48.888;9.134;2023-03-01T04:32:40;23.07;;;14.10;;
6549;SDS011;15142;48.888;9.134;2023-03-01T04:35:07;29.43;;;14.80;;
6549;SDS011;15142;48.888;9.134;2023-03-01T04:37:34;34.73;;;16.23;;
6549;SDS011;15142;48.888;9.134;2023-03-01T04:40:02;32.10;;;14.37;;
6549;SDS011;15142;48.888;9.134;2023-03-01T04:42:38;24.43;;;14.60;;
6549;SDS011;15142;48.888;9.134;2023-03-01T04:45:06;30.27;;;14.63;;
6549;SDS011;15142;48.888;9.134;2023-03-01T04:47:38;31.47;;;15.40;;
6549;SDS011;15142;48.888;9.134;2023-03-01T04:50:06;24.40;;;15.10;;
6549;SDS011;15142;48.888;9.134;2023-03-01T04:52:33;34.87;;;15.63;;
6549;SDS011;15142;48.888;9.134;2023-03-01T04:55:00;28.63;;;15.20;;
6549;SDS011;15142;48.888;9.134;2023-03-01T04:57:27;32.60;;;15.47;;
6549;SDS011;15142;48.888;9.134;2023-03-01T04:59:53;34.37;;;17.17;;
6549;SDS011;15142;48.888;9.134;2023-03-01T05:02:21;25.30;;;14.20;;
6549;SDS011;15142;48.888;9.134;2023-03-01T05:04:48;29.00;;;15.80;;
6549;SDS011;15142;48.888;9.134;2023-03-01T05:07:15;30.07;;;15.10;;
6549;SDS011;15142;48.888;9.134;2023-03-01T05:09:44;32.33;;;16.10;;
6549;SDS011;15142;48.888;9.134;2023-03-01T05:12:11;36.90;;;15.57;;
6549;SDS011;15142;48.888;9.134;2023-03-01T05:14:37;27.73;;;14.27;;
6549;SDS011;15142;48.888;9.134;2023-03-01T05:17:04;25.93;;;13.70;;
6549;SDS011;15142;48.888;9.134;2023-03-01T05:19:32;25.73;;;13.80;;
6549;SDS011;15142;48.888;9.134;2023-03-01T05:21:59;25.33;;;15.37;;
6549;SDS011;15142;48.888;9.134;2023-03-01T05:24:30;22.47;;;13.60;;
6549;SDS011;15142;48.888;9.134;2023-03-01T05:26:58;25.10;;;12.63;;
6549;SDS011;15142;48.888;9.134;2023-03-01T05:29:25;25.90;;;14.30;;
6549;SDS011;15142;48.888;9.134;2023-03-01T05:31:53;26.90;;;15.40;;
6549;SDS011;15142;48.888;9.134;2023-03-01T05:34:22;30.43;;;14.87;;
6549;SDS011;15142;48.888;9.134;2023-03-01T05:36:52;30.50;;;14.50;;
6549;SDS011;15142;48.888;9.134;2023-03-01T05:39:19;35.27;;;16.80;;
6549;SDS011;15142;48.888;9.134;2023-03-01T05:41:47;27.73;;;15.97;;
6549;SDS011;15142;48.888;9.134;2023-03-01T05:44:14;28.00;;;14.97;;
6549;SDS011;15142;48.888;9.134;2023-03-01T05:46:41;34.90;;;16.63;;
6549;SDS011;15142;48.888;9.134;2023-03-01T05:49:07;27.17;;;15.33;;
6549;SDS011;15142;48.888;9.134;2023-03-01T05:51:34;28.20;;;15.60;;
6549;SDS011;15142;48.888;9.134;2023-03-01T05:54:02;32.27;;;14.90;;
6549;SDS011;15142;48.888;9.134;2023-03-01T05:56:32;29.23;;;17.60;;
6549;SDS011;15142;48.888;9.134;2023-03-01T05:58:58;42.60;;;17.30;;
6549;SDS011;15142;48.888;9.134;2023-03-01T06:01:25;28.67;;;15.33;;
6549;SDS011;15142;48.888;9.134;2023-03-01T06:03:52;35.43;;;17.13;;
6549;SDS011;15142;48.888;9.134;2023-03-01T06:06:18;30.33;;;15.93;;
6549;SDS011;15142;48.888;9.134;2023-03-01T06:08:45;27.90;;;16.13;;
6549;SDS011;15142;48.888;9.134;2023-03-01T06:11:13;32.20;;;15.13;;
6549;SDS011;15142;48.888;9.134;2023-03-01T06:13:40;36.37;;;16.73;;
6549;SDS011;15142;48.888;9.134;2023-03-01T06:16:07;37.07;;;17.50;;
6549;SDS011;15142;48.888;9.134;2023-03-01T06:18:34;47.93;;;18.90;;
6549;SDS011;15142;48.888;9.134;2023-03-01T06:21:01;33.30;;;17.43;;
6549;SDS011;15142;48.888;9.134;2023-03-01T06:23:29;30.67;;;16.23;;
6549;SDS011;15142;48.888;9.134;2023-03-01T06:25:55;30.10;;;16.00;;
6549;SDS011;15142;48.888;9.134;2023-03-01T06:28:23;31.03;;;16.33;;
6549;SDS011;15142;48.888;9.134;2023-03-01T06:30:50;47.23;;;16.40;;
6549;SDS011;15142;48.888;9.134;2023-03-01T06:33:17;32.53;;;16.90;;
6549;SDS011;15142;48.888;9.134;2023-03-01T06:35:45;34.07;;;18.07;;
6549;SDS011;15142;48.888;9.134;2023-03-01T06:38:11;30.90;;;16.10;;
6549;SDS011;15142;48.888;9.134;2023-03-01T06:40:40;30.73;;;17.03;;
6549;SDS011;15142;48.888;9.134;2023-03-01T06:43:07;29.97;;;16.10;;
6549;SDS011;15142;48.888;9.134;2023-03-01T06:45:35;33.70;;;19.97;;
6549;SDS011;15142;48.888;9.134;2023-03-01T06:48:03;30.67;;;17.10;;
6549;SDS011;15142;48.888;9.134;2023-03-01T06:50:30;31.80;;;18.00;;
6549;SDS011;15142;48.888;9.134;2023-03-01T06:52:57;32.70;;;18.43;;
6549;SDS011;15142;48.888;9.134;2023-03-01T06:55:24;32.67;;;17.37;;
6549;SDS011;15142;48.888;9.134;2023-03-01T06:57:53;38.57;;;19.70;;
6549;SDS011;15142;48.888;9.134;2023-03-01T07:00:20;34.13;;;18.00;;
6549;SDS011;15142;48.888;9.134;2023-03-01T07:02:49;29.20;;;16.47;;
6549;SDS011;15142;48.888;9.134;2023-03-01T07:05:16;34.90;;;17.53;;
6549;SDS011;15142;48.888;9.134;2023-03-01T07:07:42;35.90;;;17.30;;
6549;SDS011;15142;48.888;9.134;2023-03-01T07:10:09;42.13;;;17.23;;
6549;SDS011;15142;48.888;9.134;2023-03-01T07:12:37;32.13;;;17.23;;
6549;SDS011;15142;48.888;9.134;2023-03-01T07:15:04;34.60;;;18.87;;
6549;SDS011;15142;48.888;9.134;2023-03-01T07:17:31;31.73;;;16.70;;
6549;SDS011;15142;48.888;9.134;2023-03-01T07:19:59;32.63;;;16.53;;
6549;SDS011;15142;48.888;9.134;2023-03-01T07:22:25;31.83;;;17.10;;
6549;SDS011;15142;48.888;9.134;2023-03-01T07:24:52;33.13;;;16.33;;
6549;SDS011;15142;48.888;9.134;2023-03-01T07:27:18;29.23;;;16.97;;
6549;SDS011;15142;48.888;9.134;2023-03-01T07:29:45;33.93;;;19.13;;
6549;SDS011;15142;48.888;9.134;2023-03-01T07:32:11;34.53;;;17.83;;
6549;SDS011;15142;48.888;9.134;2023-03-01T07:34:38;30.10;;;17.20;;
6549;SDS011;15142;48.888;9.134;2023-03-01T07:37:06;29.90;;;16.53;;
6549;SDS011;15142;48.888;9.134;2023-03-01T07:39:32;34.93;;;18.60;;
6549;SDS011;15142;48.888;9.134;2023-03-01T07:41:59;30.07;;;16.83;;
6549;SDS011;15142;48.888;9.134;2023-03-01T07:44:26;34.80;;;16.43;;
6549;SDS011;15142;48.888;9.134;2023-03-01T07:46:53;45.20;;;17.40;;
6549;SDS011;15142;48.888;9.134;2023-03-01T07:49:21;34.47;;;16.77;;
6549;SDS011;15142;48.888;9.134;2023-03-01T07:51:48;36.80;;;16.30;;
6549;SDS011;15142;48.888;9.134;2023-03-01T07:54:16;38.73;;;17.70;;
6549;SDS011;15142;48.888;9.134;2023-03-01T07:56:43;37.77;;;17.63;;
6549;SDS011;15142;48.888;9.134;2023-03-01T07:59:09;32.93;;;17.67;;
6549;SDS011;15142;48.888;9.134;2023-03-01T08:01:36;49.90;;;18.90;;
6549;SDS011;15142;48.888;9.134;2023-03-01T08:04:03;39.83;;;18.90;;
6549;SDS011;15142;48.888;9.134;2023-03-01T08:06:33;32.13;;;17.03;;
6549;SDS011;15142;48.888;9.134;2023-03-01T08:09:00;37.70;;;17.67;;
6549;SDS011;15142;48.888;9.134;2023-03-01T08:11:28;36.80;;;17.70;;
6549;SDS011;15142;48.888;9.134;2023-03-01T08:13:54;38.93;;;18.43;;
6549;SDS011;15142;48.888;9.134;2023-03-01T08:16:22;32.17;;;17.00;;
6549;SDS011;15142;48.888;9.134;2023-03-01T08:18:49;41.80;;;19.60;;
6549;SDS011;15142;48.888;9.134;2023-03-01T08:21:16;36.43;;;16.10;;
6549;SDS011;15142;48.888;9.134;2023-03-01T08:23:44;42.67;;;18.33;;
6549;SDS011;15142;48.888;9.134;2023-03-01T08:26:12;35.87;;;17.53;;
6549;SDS011;15142;48.888;9.134;2023-03-01T08:28:41;35.83;;;18.10;;
6549;SDS011;15142;48.888;9.134;2023-03-01T08:31:15;31.93;;;16.33;;
6549;SDS011;15142;48.888;9.134;2023-03-01T08:33:43;36.63;;;18.30;;
6549;SDS011;15142;48.888;9.134;2023-03-01T08:36:15;34.77;;;19.30;;
6549;SDS011;15142;48.888;9.134;2023-03-01T08:38:43;41.13;;;17.77;;
6549;SDS011;15142;48.888;9.134;2023-03-01T08:41:09;30.10;;;17.80;;
6549;SDS011;15142;48.888;9.134;2023-03-01T08:43:36;34.17;;;17.40;;
6549;SDS011;15142;48.888;9.134;2023-03-01T08:46:04;34.03;;;16.10;;
6549;SDS011;15142;48.888;9.134;2023-03-01T08:48:30;29.97;;;15.43;;
6549;SDS011;15142;48.888;9.134;2023-03-01T08:50:59;34.30;;;19.10;;
6549;SDS011;15142;48.888;9.134;2023-03-01T08:53:33;29.60;;;15.60;;
6549;SDS011;15142;48.888;9.134;2023-03-01T08:56:00;34.80;;;16.97;;
6549;SDS011;15142;48.888;9.134;2023-03-01T08:58:27;35.00;;;17.67;;
6549;SDS011;15142;48.888;9.134;2023-03-01T09:00:54;31.77;;;16.87;;
6549;SDS011;15142;48.888;9.134;2023-03-01T09:03:22;30.60;;;17.07;;
6549;SDS011;15142;48.888;9.134;2023-03-01T09:05:49;28.33;;;17.73;;
6549;SDS011;15142;48.888;9.134;2023-03-01T09:08:16;39.13;;;18.20;;
6549;SDS011;15142;48.888;9.134;2023-03-01T09:10:43;39.30;;;17.57;;
6549;SDS011;15142;48.888;9.134;2023-03-01T09:13:10;34.73;;;16.27;;
6549;SDS011;15142;48.888;9.134;2023-03-01T09:15:37;29.80;;;16.53;;
6549;SDS011;15142;48.888;9.134;2023-03-01T09:18:04;37.60;;;17.30;;
6549;SDS011;15142;48.888;9.134;2023-03-01T09:20:32;30.00;;;16.63;;
6549;SDS011;15142;48.888;9.134;2023-03-01T09:22:58;33.07;;;18.33;;
6549;SDS011;15142;48.888;9.134;2023-03-01T09:25:25;31.10;;;16.17;;
6549;SDS011;15142;48.888;9.134;2023-03-01T09:27:52;32.63;;;16.23;;
6549;SDS011;15142;48.888;9.134;2023-03-01T09:30:19;32.77;;;17.90;;
6549;SDS011;15142;48.888;9.134;2023-03-01T09:32:46;36.67;;;18.43;;
6549;SDS011;15142;48.888;9.134;2023-03-01T09:35:12;27.63;;;15.43;;
6549;SDS011;15142;48.888;9.134;2023-03-01T09:37:40;32.83;;;17.83;;
6549;SDS011;15142;48.888;9.134;2023-03-01T09:40:09;31.23;;;18.57;;
6549;SDS011;15142;48.888;9.134;2023-03-01T09:42:45;33.60;;;18.80;;
6549;SDS011;15142;48.888;9.134;2023-03-01T09:45:18;29.20;;;17.30;;
6549;SDS011;15142;48.888;9.134;2023-03-01T09:48:00;30.63;;;17.67;;
6549;SDS011;15142;48.888;9.134;2023-03-01T09:50:30;43.80;;;17.47;;
6549;SDS011;15142;48.888;9.134;2023-03-01T09:53:03;26.97;;;15.73;;
6549;SDS011;15142;48.888;9.134;2023-03-01T09:55:34;37.07;;;17.23;;
6549;SDS011;15142;48.888;9.134;2023-03-01T09:58:25;32.60;;;16.40;;
6549;SDS011;15142;48.888;9.134;2023-03-01T10:01:02;27.17;;;16.70;;
6549;SDS011;15142;48.888;9.134;2023-03-01T10:03:36;27.83;;;16.77;;
6549;SDS011;15142;48.888;9.134;2023-03-01T10:06:08;32.93;;;17.10;;
6549;SDS011;15142;48.888;9.134;2023-03-01T10:08:42;42.53;;;18.37;;
6549;SDS011;15142;48.888;9.134;2023-03-01T10:11:17;30.10;;;16.53;;
6549;SDS011;15142;48.888;9.134;2023-03-01T10:13:50;29.93;;;16.10;;
6549;SDS011;15142;48.888;9.134;2023-03-01T10:16:22;34.43;;;17.80;;
6549;SDS011;15142;48.888;9.134;2023-03-01T10:18:55;36.53;;;17.43;;
6549;SDS011;15142;48.888;9.134;2023-03-01T10:21:26;34.70;;;17.40;;
6549;SDS011;15142;48.888;9.134;2023-03-01T10:24:05;39.20;;;17.90;;
6549;SDS011;15142;48.888;9.134;2023-03-01T10:26:39;36.73;;;16.70;;
6549;SDS011;15142;48.888;9.134;2023-03-01T10:29:13;33.03;;;16.57;;
6549;SDS011;15142;48.888;9.134;2023-03-01T10:31:41;36.67;;;18.97;;
6549;SDS011;15142;48.888;9.134;2023-03-01T10:34:11;35.37;;;18.80;;
6549;SDS011;15142;48.888;9.134;2023-03-01T10:36:40;31.10;;;17.70;;
6549;SDS011;15142;48.888;9.134;2023-03-01T10:39:14;24.33;;;15.80;;
6549;SDS011;15142;48.888;9.134;2023-03-01T10:41:51;26.57;;;16.13;;
6549;SDS011;15142;48.888;9.134;2023-03-01T10:44:39;32.97;;;18.63;;
6549;SDS011;15142;48.888;9.134;2023-03-01T10:47:13;29.47;;;16.67;;
6549;SDS011;15142;48.888;9.134;2023-03-01T10:49:53;36.43;;;15.80;;
6549;SDS011;15142;48.888;9.134;2023-03-01T10:52:25;31.37;;;16.37;;
6549;SDS011;15142;48.888;9.134;2023-03-01T10:54:56;45.33;;;17.90;;
6549;SDS011;15142;48.888;9.134;2023-03-01T10:57:29;31.83;;;17.33;;
6549;SDS011;15142;48.888;9.134;2023-03-01T11:00:15;27.83;;;16.20;;
6549;SDS011;15142;48.888;9.134;2023-03-01T11:02:46;28.13;;;15.33;;
6549;SDS011;15142;48.888;9.134;2023-03-01T11:05:19;21.10;;;15.10;;
6549;SDS011;15142;48.888;9.134;2023-03-01T11:07:50;29.53;;;17.37;;
6549;SDS011;15142;48.888;9.134;2023-03-01T11:10:21;28.27;;;15.77;;
6549;SDS011;15142;48.888;9.134;2023-03-01T11:12:50;30.03;;;17.03;;
6549;SDS011;15142;48.888;9.134;2023-03-01T11:15:22;35.03;;;16.40;;
6549;SDS011;15142;48.888;9.134;2023-03-01T11:17:51;26.60;;;14.97;;
6549;SDS011;15142;48.888;9.134;2023-03-01T11:20:21;29.17;;;15.97;;
6549;SDS011;15142;48.888;9.134;2023-03-01T11:22:52;27.07;;;16.03;;
6549;SDS011;15142;48.888;9.134;2023-03-01T11:25:23;34.47;;;18.27;;
6549;SDS011;15142;48.888;9.134;2023-03-01T11:27:53;29.53;;;15.97;;
6549;SDS011;15142;48.888;9.134;2023-03-01T11:30:22;31.90;;;17.50;;
6549;SDS011;15142;48.888;9.134;2023-03-01T11:32:54;33.67;;;18.47;;
6549;SDS011;15142;48.888;9.134;2023-03-01T11:35:29;30.13;;;17.30;;
6549;SDS011;15142;48.888;9.134;2023-03-01T11:37:59;41.93;;;16.47;;
6549;SDS011;15142;48.888;9.134;2023-03-01T11:40:39;30.53;;;16.33;;
6549;SDS011;15142;48.888;9.134;2023-03-01T11:43:11;28.90;;;14.80;;
6549;SDS011;15142;48.888;9.134;2023-03-01T11:45:54;25.63;;;15.40;;
6549;SDS011;15142;48.888;9.134;2023-03-01T11:48:48;24.03;;;14.57;;
6549;SDS011;15142;48.888;9.134;2023-03-01T11:51:24;25.17;;;15.20;;
6549;SDS011;15142;48.888;9.134;2023-03-01T11:54:03;33.10;;;15.63;;
6549;SDS011;15142;48.888;9.134;2023-03-01T11:56:38;23.53;;;15.37;;
6549;SDS011;15142;48.888;9.134;2023-03-01T11:59:20;23.77;;;14.40;;
6549;SDS011;15142;48.888;9.134;2023-03-01T12:02:10;22.50;;;15.13;;
6549;SDS011;15142;48.888;9.134;2023-03-01T12:04:53;26.40;;;17.67;;
6549;SDS011;15142;48.888;9.134;2023-03-01T12:07:31;26.73;;;16.57;;
6549;SDS011;15142;48.888;9.134;2023-03-01T12:10:17;20.70;;;14.47;;
6549;SDS011;15142;48.888;9.134;2023-03-01T12:12:52;32.23;;;16.73;;
6549;SDS011;15142;48.888;9.134;2023-03-01T12:18:34;21.40;;;15.40;;
6549;SDS011;15142;48.888;9.134;2023-03-01T12:21:14;23.13;;;15.23;;
6549;SDS011;15142;48.888;9.134;2023-03-01T12:23:56;22.33;;;15.67;;
6549;SDS011;15142;48.888;9.134;2023-03-01T12:26:50;25.27;;;14.67;;
6549;SDS011;15142;48.888;9.134;2023-03-01T12:29:27;24.00;;;15.20;;
6549;SDS011;15142;48.888;9.134;2023-03-01T12:32:01;21.93;;;14.40;;
6549;SDS011;15142;48.888;9.134;2023-03-01T12:34:47;23.90;;;15.10;;
6549;SDS011;15142;48.888;9.134;2023-03-01T12:37:24;24.63;;;16.87;;
6549;SDS011;15142;48.888;9.134;2023-03-01T12:40:02;27.87;;;15.60;;
6549;SDS011;15142;48.888;9.134;2023-03-01T12:42:44;23.30;;;14.80;;
6549;SDS011;15142;48.888;9.134;2023-03-01T12:51:04;30.30;;;16.50;;
6549;SDS011;15142;48.888;9.134;2023-03-01T12:53:36;19.60;;;14.90;;
6549;SDS011;15142;48.888;9.134;2023-03-01T12:56:06;23.83;;;15.63;;
6549;SDS011;15142;48.888;9.134;2023-03-01T12:58:35;23.70;;;15.40;;
6549;SDS011;15142;48.888;9.134;2023-03-01T13:01:12;21.90;;;15.10;;
6549;SDS011;15142;48.888;9.134;2023-03-01T13:03:55;22.40;;;14.80;;
6549;SDS011;15142;48.888;9.134;2023-03-01T13:06:32;22.20;;;15.33;;
6549;SDS011;15142;48.888;9.134;2023-03-01T13:09:08;20.87;;;14.97;;
6549;SDS011;15142;48.888;9.134;2023-03-01T13:11:43;26.30;;;15.70;;
6549;SDS011;15142;48.888;9.134;2023-03-01T13:17:03;17.50;;;13.40;;
6549;SDS011;15142;48.888;9.134;2023-03-01T13:19:30;23.80;;;15.03;;
6549;SDS011;15142;48.888;9.134;2023-03-01T13:21:57;23.10;;;15.43;;
6549;SDS011;15142;48.888;9.134;2023-03-01T13:24:28;32.40;;;16.70;;
6549;SDS011;15142;48.888;9.134;2023-03-01T13:29:54;23.50;;;14.97;;
6549;SDS011;15142;48.888;9.134;2023-03-01T13:32:26;21.87;;;16.17;;
6549;SDS011;15142;48.888;9.134;2023-03-01T13:34:57;26.37;;;15.53;;
6549;SDS011;15142;48.888;9.134;2023-03-01T13:37:29;23.47;;;15.70;;
6549;SDS011;15142;48.888;9.134;2023-03-01T13:40:03;23.67;;;16.30;;
6549;SDS011;15142;48.888;9.134;2023-03-01T13:42:52;24.10;;;14.53;;
6549;SDS011;15142;48.888;9.134;2023-03-01T13:45:21;21.20;;;16.23;;
6549;SDS011;15142;48.888;9.134;2023-03-01T13:47:55;27.60;;;15.60;;
6549;SDS011;15142;48.888;9.134;2023-03-01T13:50:25;23.40;;;15.70;;
6549;SDS011;15142;48.888;9.134;2023-03-01T13:52:55;27.13;;;15.73;;
6549;SDS011;15142;48.888;9.134;2023-03-01T13:55:25;23.30;;;15.80;;
6549;SDS011;15142;48.888;9.134;2023-03-01T13:57:57;22.80;;;14.90;;
6549;SDS011;15142;48.888;9.134;2023-03-01T14:00:30;26.07;;;16.37;;
6549;SDS011;15142;48.888;9.134;2023-03-01T14:03:00;22.17;;;15.80;;
6549;SDS011;15142;48.888;9.134;2023-03-01T14:05:29;25.80;;;16.07;;
6549;SDS011;15142;48.888;9.134;2023-03-01T14:07:55;25.97;;;15.67;;
6549;SDS011;15142;48.888;9.134;2023-03-01T14:10:22;25.37;;;15.87;;
6549;SDS011;15142;48.888;9.134;2023-03-01T14:12:58;26.50;;;16.33;;
6549;SDS011;15142;48.888;9.134;2023-03-01T14:15:34;25.70;;;16.57;;
6549;SDS011;15142;48.888;9.134;2023-03-01T14:18:05;26.77;;;16.70;;
6549;SDS011;15142;48.888;9.134;2023-03-01T14:20:40;25.27;;;16.47;;
6549;SDS011;15142;48.888;9.134;2023-03-01T14:23:11;28.20;;;16.00;;
6549;SDS011;15142;48.888;9.134;2023-03-01T14:25:45;29.03;;;15.37;;
6549;SDS011;15142;48.888;9.134;2023-03-01T14:28:14;24.80;;;16.17;;
6549;SDS011;15142;48.888;9.134;2023-03-01T14:30:44;31.90;;;16.87;;
6549;SDS011;15142;48.888;9.134;2023-03-01T14:33:20;25.17;;;15.70;;
6549;SDS011;15142;48.888;9.134;2023-03-01T14:35:53;32.60;;;18.10;;
6549;SDS011;15142;48.888;9.134;2023-03-01T14:38:21;37.23;;;16.83;;
6549;SDS011;15142;48.888;9.134;2023-03-01T14:40:49;30.13;;;16.50;;
6549;SDS011;15142;48.888;9.134;2023-03-01T14:43:22;28.30;;;16.47;;
6549;SDS011;15142;48.888;9.134;2023-03-01T14:45:50;33.23;;;17.20;;
6549;SDS011;15142;48.888;9.134;2023-03-01T14:48:17;34.63;;;16.83;;
6549;SDS011;15142;48.888;9.134;2023-03-01T14:50:46;27.43;;;16.80;;
6549;SDS011;15142;48.888;9.134;2023-03-01T14:53:15;23.80;;;14.90;;
6549;SDS011;15142;48.888;9.134;2023-03-01T14:55:44;26.83;;;16.63;;
6549;SDS011;15142;48.888;9.134;2023-03-01T14:58:14;32.13;;;16.90;;
6549;SDS011;15142;48.888;9.134;2023-03-01T15:00:46;28.73;;;16.57;;
6549;SDS011;15142;48.888;9.134;2023-03-01T15:03:17;32.57;;;15.57;;
6549;SDS011;15142;48.888;9.134;2023-03-01T15:05:50;27.23;;;15.23;;
6549;SDS011;15142;48.888;9.134;2023-03-01T15:08:19;27.87;;;14.77;;